createdAt,value
2022-08-12T00:02:57.823Z,36.54
2022-08-12T00:13:18.178Z,36.20
2022-08-12T00:23:41.234Z,36.51
2022-08-12T00:34:01.666Z,36.98
2022-08-12T00:44:05.479Z,37.21
2022-08-12T00:54:07.707Z,37.57
2022-08-12T01:04:29.398Z,37.96
2022-08-12T01:14:32.026Z,38.38
2022-08-12T01:24:48.979Z,38.23
2022-08-12T01:35:15.209Z,38.94
2022-08-12T01:45:24.589Z,39.07
2022-08-12T01:55:33.388Z,39.65
2022-08-12T02:05:56.824Z,39.26
2022-08-12T02:16:10.019Z,39.47
2022-08-12T02:26:13.131Z,39.79
2022-08-12T02:36:16.472Z,39.99
2022-08-12T02:46:23.573Z,40.25
2022-08-12T02:56:28.917Z,40.71
2022-08-12T03:06:53.101Z,40.62
2022-08-12T03:17:13.178Z,41.30
2022-08-12T03:27:15.182Z,41.35
2022-08-12T03:37:19.642Z,42.03
2022-08-12T03:47:49.493Z,42.07
2022-08-12T03:58:09.935Z,42.71
2022-08-12T04:08:11.997Z,41.63
2022-08-12T04:18:16.070Z,41.53
2022-08-12T04:28:27.883Z,41.10
2022-08-12T04:38:31.719Z,41.82
2022-08-12T04:48:33.215Z,42.15
2022-08-12T04:58:34.715Z,42.41
2022-08-12T05:08:36.906Z,43.99
2022-08-12T05:18:39.899Z,41.36
2022-08-12T05:28:41.604Z,39.98
2022-08-12T05:38:57.305Z,39.12
2022-08-12T05:49:00.730Z,39.33
2022-08-12T05:59:07.648Z,37.81
2022-08-12T06:09:13.239Z,37.79
2022-08-12T06:19:16.065Z,36.33
2022-08-12T06:30:08.023Z,30.54
2022-08-12T06:39:41.468Z,13.67
2022-08-12T06:49:44.356Z,12.15
2022-08-12T06:59:45.957Z,9.99
2022-08-12T07:10:04.217Z,8.03
2022-08-12T07:20:29.622Z,8.12
2022-08-12T07:30:35.034Z,7.82
2022-08-12T07:40:36.562Z,7.86
2022-08-12T07:50:38.313Z,8.09
2022-08-12T08:00:42.469Z,7.12
2022-08-12T08:10:44.743Z,8.15
2022-08-12T08:20:46.430Z,7.80
2022-08-12T08:30:50.452Z,8.76
2022-08-12T08:41:11.157Z,8.60
2022-08-12T08:51:13.271Z,8.76
2022-08-12T09:01:20.865Z,8.64
2022-08-12T09:12:07.059Z,8.49
2022-08-12T09:22:02.663Z,8.92
2022-08-12T09:32:09.386Z,9.26
2022-08-12T09:42:49.290Z,11.45
2022-08-12T09:53:35.989Z,11.76
2022-08-12T10:04:03.449Z,13.34
2022-08-12T10:14:05.226Z,17.05
2022-08-12T10:24:09.688Z,16.41
2022-08-12T10:34:26.701Z,15.28
2022-08-12T10:44:29.205Z,17.18
2022-08-12T10:54:33.348Z,11.39
2022-08-12T11:04:45.038Z,10.65
2022-08-12T11:14:52.118Z,17.00
2022-08-12T11:24:55.424Z,19.26
2022-08-12T11:34:59.311Z,19.90
2022-08-12T11:45:00.989Z,19.85
2022-08-12T11:55:02.606Z,19.00
2022-08-12T12:05:04.419Z,18.54
2022-08-12T12:15:09.561Z,18.49
2022-08-12T12:25:12.906Z,18.57
2022-08-12T12:36:06.303Z,18.27
2022-08-12T12:45:39.093Z,16.92
2022-08-12T12:55:41.497Z,17.12
2022-08-12T13:05:43.411Z,16.68
2022-08-12T13:15:49.271Z,15.99
2022-08-12T13:25:50.753Z,16.38
2022-08-12T13:36:06.103Z,15.26
2022-08-12T13:46:13.691Z,18.04
2022-08-12T13:56:15.403Z,17.67
2022-08-12T14:06:17.017Z,15.91
2022-08-12T14:16:37.745Z,15.41
2022-08-12T14:26:41.591Z,17.26
2022-08-12T14:36:43.075Z,16.54
2022-08-12T14:46:44.535Z,19.63
2022-08-12T14:57:20.168Z,24.04
2022-08-12T15:07:34.333Z,24.71
2022-08-12T15:17:39.045Z,24.71
2022-08-12T15:28:11.105Z,23.58
2022-08-12T15:38:13.816Z,23.19
2022-08-12T15:48:20.616Z,23.19
2022-08-12T15:58:23.958Z,22.42
2022-08-12T16:08:29.845Z,23.80
2022-08-12T16:18:37.331Z,23.70
2022-08-12T16:28:38.887Z,22.70
2022-08-12T16:38:40.774Z,22.80
2022-08-12T16:48:48.092Z,23.22
2022-08-12T16:58:52.180Z,25.50
2022-08-12T17:09:02.348Z,27.38
2022-08-12T17:19:09.451Z,28.75
2022-08-12T17:29:16.499Z,28.97
2022-08-12T17:39:18.394Z,28.95
2022-08-12T17:50:02.125Z,28.54
2022-08-12T17:59:47.799Z,29.07
2022-08-12T18:09:52.929Z,29.60
2022-08-12T18:20:05.723Z,29.76
2022-08-12T18:30:09.693Z,30.03
2022-08-12T18:40:31.478Z,30.63
2022-08-12T18:50:48.861Z,30.55
2022-08-12T19:00:53.181Z,31.48
2022-08-12T19:11:17.071Z,31.60
2022-08-12T19:21:20.260Z,31.63
2022-08-12T19:31:45.397Z,32.68
2022-08-12T19:42:01.828Z,33.65
2022-08-12T19:52:10.201Z,34.66
2022-08-12T20:02:14.615Z,35.34
2022-08-12T20:12:31.834Z,35.96
2022-08-12T20:22:34.934Z,36.49
2022-08-12T20:32:47.667Z,37.63
2022-08-12T20:42:50.587Z,37.99
2022-08-12T20:52:52.161Z,38.03
2022-08-12T21:03:13.637Z,38.86
2022-08-12T21:13:20.464Z,39.84
2022-08-12T21:23:23.004Z,39.63
2022-08-12T21:33:24.786Z,39.75
2022-08-12T21:43:44.859Z,39.99
2022-08-12T21:54:07.036Z,40.16
2022-08-12T22:04:28.933Z,41.06
2022-08-12T22:14:30.957Z,41.59
2022-08-12T22:24:34.094Z,42.11
2022-08-12T22:34:35.544Z,41.88
2022-08-12T22:44:56.780Z,41.79
2022-08-12T22:55:04.094Z,42.10
2022-08-12T23:05:08.690Z,42.02
2022-08-12T23:15:12.067Z,42.82
2022-08-12T23:25:20.836Z,43.39
2022-08-12T23:35:22.890Z,43.48
2022-08-12T23:45:30.841Z,43.00
2022-08-12T23:55:40.773Z,45.05
